createdAt,value
2019-05-07T00:02:16.654Z,10.93
2019-05-07T00:04:43.892Z,10.20
2019-05-07T00:07:13.000Z,9.43
2019-05-07T00:09:40.225Z,7.90
2019-05-07T00:12:07.566Z,10.38
2019-05-07T00:14:34.792Z,9.45
2019-05-07T00:17:02.262Z,6.65
2019-05-07T00:19:32.410Z,9.85
2019-05-07T00:22:02.183Z,9.75
2019-05-07T00:24:28.967Z,6.95
2019-05-07T00:26:56.183Z,8.98
2019-05-07T00:29:23.400Z,15.78
2019-05-07T00:31:52.100Z,10.65
2019-05-07T00:34:22.009Z,8.58
2019-05-07T00:37:02.060Z,8.15
2019-05-07T00:39:33.484Z,10.70
2019-05-07T00:42:19.369Z,8.28
2019-05-07T00:44:54.583Z,8.68
2019-05-07T00:47:23.993Z,9.70
2019-05-07T00:49:52.248Z,13.28
2019-05-07T00:52:19.950Z,8.45
2019-05-07T00:54:47.239Z,9.03
2019-05-07T00:57:14.499Z,10.23
2019-05-07T00:59:42.928Z,9.88
2019-05-07T01:02:10.309Z,13.65
2019-05-07T01:04:37.525Z,9.88
2019-05-07T01:07:04.873Z,11.45
2019-05-07T01:09:32.451Z,11.50
2019-05-07T01:11:59.736Z,11.00
2019-05-07T01:14:27.016Z,8.40
2019-05-07T01:16:54.299Z,8.93
2019-05-07T01:19:22.010Z,18.82
2019-05-07T01:21:49.340Z,10.28
2019-05-07T01:24:16.973Z,8.83
2019-05-07T01:26:44.575Z,15.48
2019-05-07T01:29:12.859Z,13.98
2019-05-07T01:31:43.137Z,13.65
2019-05-07T01:34:18.474Z,11.75
2019-05-07T01:36:45.740Z,13.08
2019-05-07T01:39:13.582Z,11.43
2019-05-07T01:41:42.007Z,14.07
2019-05-07T01:44:09.432Z,10.70
2019-05-07T01:46:36.699Z,14.80
2019-05-07T01:49:05.841Z,11.40
2019-05-07T01:51:34.514Z,7.57
2019-05-07T01:54:02.344Z,14.05
2019-05-07T01:56:29.632Z,12.55
2019-05-07T01:58:56.933Z,14.18
2019-05-07T02:01:24.193Z,11.63
2019-05-07T02:03:56.005Z,11.12
2019-05-07T02:06:26.071Z,8.80
2019-05-07T02:08:55.144Z,11.73
2019-05-07T02:11:42.255Z,8.65
2019-05-07T02:14:10.685Z,6.75
2019-05-07T02:16:37.894Z,13.83
2019-05-07T02:19:05.149Z,11.53
2019-05-07T02:21:32.953Z,11.60
2019-05-07T02:24:00.366Z,9.48
2019-05-07T02:26:27.621Z,11.18
2019-05-07T02:28:54.922Z,14.40
2019-05-07T02:31:23.343Z,7.60
2019-05-07T02:33:53.830Z,12.65
2019-05-07T02:36:23.382Z,10.80
2019-05-07T02:38:53.785Z,10.30
2019-05-07T02:41:28.413Z,11.05
2019-05-07T02:43:59.813Z,12.58
2019-05-07T02:46:36.501Z,15.90
2019-05-07T02:49:23.451Z,13.18
2019-05-07T02:52:04.141Z,10.82
2019-05-07T02:54:49.181Z,10.60
2019-05-07T02:57:16.991Z,12.70
2019-05-07T02:59:44.412Z,13.78
2019-05-07T03:02:13.899Z,16.20
2019-05-07T03:04:43.512Z,10.43
2019-05-07T03:07:12.950Z,15.98
2019-05-07T03:09:42.826Z,14.03
2019-05-07T03:12:08.511Z,14.47
2019-05-07T03:14:35.740Z,12.15
2019-05-07T03:17:03.252Z,18.15
2019-05-07T03:19:33.116Z,9.25
2019-05-07T03:22:00.005Z,10.98
2019-05-07T03:24:44.094Z,14.58
2019-05-07T03:27:14.113Z,10.48
2019-05-07T03:29:44.189Z,10.18
2019-05-07T03:32:36.764Z,13.30
2019-05-07T03:35:08.354Z,13.80
2019-05-07T03:37:36.521Z,14.98
2019-05-07T03:40:05.106Z,13.75
2019-05-07T03:42:33.793Z,14.73
2019-05-07T03:45:13.680Z,11.88
2019-05-07T03:47:43.893Z,9.28
2019-05-07T03:50:14.656Z,14.58
2019-05-07T03:52:43.168Z,15.07
2019-05-07T03:55:10.418Z,14.30
2019-05-07T03:57:37.779Z,13.48
2019-05-07T04:00:05.795Z,12.95
2019-05-07T04:02:33.396Z,13.43
2019-05-07T04:05:04.406Z,10.25
2019-05-07T04:07:33.395Z,13.38
2019-05-07T04:09:59.301Z,11.08
2019-05-07T04:12:26.587Z,10.35
2019-05-07T04:14:53.895Z,15.90
2019-05-07T04:17:23.219Z,8.95
2019-05-07T04:19:52.990Z,10.82
2019-05-07T04:22:20.190Z,9.60
2019-05-07T04:25:04.374Z,13.05
2019-05-07T04:27:44.277Z,8.55
2019-05-07T04:30:12.906Z,12.30
2019-05-07T04:32:46.926Z,15.32
2019-05-07T04:35:16.055Z,9.85
2019-05-07T04:37:43.284Z,10.88
2019-05-07T04:40:13.234Z,15.68
2019-05-07T04:42:42.599Z,13.62
2019-05-07T04:45:09.057Z,15.10
2019-05-07T04:47:42.935Z,13.78
2019-05-07T04:50:05.565Z,11.22
2019-05-07T04:52:34.642Z,13.98
2019-05-07T04:55:04.574Z,15.43
2019-05-07T04:57:33.025Z,8.48
2019-05-07T05:00:03.365Z,10.63
2019-05-07T05:02:36.910Z,13.20
2019-05-07T05:05:04.136Z,9.43
2019-05-07T05:07:33.539Z,8.58
2019-05-07T05:10:02.772Z,11.73
2019-05-07T05:12:32.585Z,10.48
2019-05-07T05:14:59.292Z,15.85
2019-05-07T05:17:26.571Z,12.18
2019-05-07T05:19:53.802Z,11.28
2019-05-07T05:22:22.842Z,10.32
2019-05-07T05:25:08.385Z,11.33
2019-05-07T05:27:35.612Z,13.72
2019-05-07T05:30:05.864Z,9.38
2019-05-07T05:32:33.199Z,13.40
2019-05-07T05:35:03.314Z,11.08
2019-05-07T05:37:32.152Z,11.10
2019-05-07T05:40:06.375Z,11.70
2019-05-07T05:42:33.343Z,15.40
2019-05-07T05:45:02.068Z,11.03
2019-05-07T05:47:32.766Z,11.60
2019-05-07T05:50:01.895Z,11.08
2019-05-07T05:52:32.991Z,14.30
2019-05-07T05:55:02.529Z,8.48
2019-05-07T05:57:51.968Z,13.48
2019-05-07T06:00:22.238Z,7.97
2019-05-07T06:03:07.515Z,9.65
2019-05-07T06:05:41.553Z,12.60
2019-05-07T06:08:13.586Z,12.50
2019-05-07T06:10:59.295Z,8.63
2019-05-07T06:13:32.341Z,7.03
2019-05-07T06:16:03.055Z,6.10
2019-05-07T06:18:49.091Z,10.40
2019-05-07T06:21:20.874Z,5.70
2019-05-07T06:23:49.998Z,8.85
2019-05-07T06:26:17.208Z,12.07
2019-05-07T06:28:44.445Z,8.25
2019-05-07T06:31:12.647Z,14.18
2019-05-07T06:33:40.018Z,10.15
2019-05-07T06:36:07.286Z,11.97
2019-05-07T06:38:36.861Z,7.53
2019-05-07T06:41:24.138Z,9.45
2019-05-07T06:43:53.260Z,9.35
2019-05-07T06:46:20.471Z,9.75
2019-05-07T06:48:47.774Z,9.18
2019-05-07T06:51:17.399Z,10.38
2019-05-07T06:53:44.086Z,8.95
2019-05-07T06:56:12.220Z,8.25
2019-05-07T06:58:43.492Z,7.55
2019-05-07T07:03:59.675Z,6.65
2019-05-07T07:06:28.695Z,9.85
2019-05-07T07:09:12.703Z,7.60
2019-05-07T07:11:48.371Z,7.95
2019-05-07T07:14:15.718Z,6.28
2019-05-07T07:16:42.962Z,5.67
2019-05-07T07:19:12.348Z,6.78
2019-05-07T07:21:39.301Z,7.60
2019-05-07T07:24:06.554Z,12.70
2019-05-07T07:26:35.616Z,6.95
2019-05-07T07:29:03.045Z,7.08
2019-05-07T07:31:44.063Z,5.22
2019-05-07T07:34:12.970Z,8.98
2019-05-07T07:36:42.385Z,6.42
2019-05-07T07:39:09.691Z,8.33
2019-05-07T07:41:38.825Z,6.97
2019-05-07T07:44:06.113Z,5.20
2019-05-07T07:46:33.355Z,11.33
2019-05-07T07:49:07.957Z,8.85
2019-05-07T07:51:40.630Z,9.00
2019-05-07T07:53:58.711Z,8.20
2019-05-07T07:56:45.328Z,3.22
2019-05-07T07:59:05.057Z,8.00
2019-05-07T08:01:34.203Z,7.83
2019-05-07T08:04:02.883Z,5.65
2019-05-07T08:06:32.649Z,4.47
2019-05-07T08:09:02.203Z,6.75
2019-05-07T08:11:31.942Z,3.72
2019-05-07T08:13:59.315Z,5.53
2019-05-07T08:16:26.605Z,7.45
2019-05-07T08:18:53.796Z,6.35
2019-05-07T08:21:22.707Z,9.00
2019-05-07T08:23:50.111Z,3.37
2019-05-07T08:26:17.370Z,4.90
2019-05-07T08:28:44.670Z,7.50
2019-05-07T08:31:25.454Z,8.43
2019-05-07T08:34:06.600Z,4.70
2019-05-07T08:39:02.564Z,8.38
2019-05-07T08:41:31.906Z,7.17
2019-05-07T08:44:10.664Z,3.60
2019-05-07T08:46:47.182Z,4.97
2019-05-07T08:49:16.193Z,4.58
2019-05-07T08:51:46.389Z,6.65
2019-05-07T08:54:13.637Z,4.40
2019-05-07T08:56:42.515Z,4.08
2019-05-07T08:59:12.261Z,2.33
2019-05-07T09:01:43.078Z,4.87
2019-05-07T09:04:09.917Z,7.65
2019-05-07T09:06:37.241Z,4.05
2019-05-07T09:09:13.088Z,5.97
2019-05-07T09:11:42.451Z,10.38
2019-05-07T09:14:12.210Z,3.62
2019-05-07T09:16:38.714Z,5.03
2019-05-07T09:19:06.012Z,10.88
2019-05-07T09:21:35.120Z,3.83
2019-05-07T09:24:03.191Z,6.22
2019-05-07T09:26:32.383Z,6.37
2019-05-07T09:29:17.943Z,10.18
2019-05-07T09:31:47.023Z,6.08
2019-05-07T09:34:14.245Z,5.42
2019-05-07T09:36:45.855Z,5.50
2019-05-07T09:39:13.182Z,6.15
2019-05-07T09:41:41.791Z,5.83
2019-05-07T09:44:09.481Z,7.03
2019-05-07T09:46:36.783Z,6.22
2019-05-07T09:49:04.006Z,10.90
2019-05-07T09:51:32.226Z,10.35
2019-05-07T09:53:59.662Z,5.95
2019-05-07T09:56:26.881Z,7.58
2019-05-07T09:58:54.229Z,9.78
2019-05-07T10:01:23.623Z,8.20
2019-05-07T10:03:51.859Z,11.70
2019-05-07T10:06:19.157Z,8.85
2019-05-07T10:08:46.988Z,8.98
2019-05-07T10:11:16.025Z,5.78
2019-05-07T10:13:45.064Z,7.37
2019-05-07T10:16:14.458Z,77.78
2019-05-07T10:18:42.698Z,18.30
2019-05-07T10:21:09.998Z,13.32
2019-05-07T10:23:37.308Z,10.93
2019-05-07T10:26:04.531Z,5.90
2019-05-07T10:28:32.173Z,6.15
2019-05-07T10:30:59.840Z,7.75
2019-05-07T10:33:27.173Z,13.20
2019-05-07T10:35:54.389Z,13.65
2019-05-07T10:38:21.881Z,33.50
2019-05-07T10:40:49.291Z,5.50
2019-05-07T10:43:16.515Z,2.87
2019-05-07T10:45:48.957Z,73.87
2019-05-07T10:48:22.077Z,38.38
2019-05-07T10:50:54.013Z,45.80
2019-05-07T10:53:22.956Z,11.08
2019-05-07T10:55:50.311Z,3.95
2019-05-07T10:58:17.988Z,8.55
2019-05-07T11:00:45.337Z,37.15
2019-05-07T11:03:14.708Z,13.62
2019-05-07T11:05:42.079Z,9.70
2019-05-07T11:08:09.340Z,13.08
2019-05-07T11:10:36.570Z,4.65
2019-05-07T11:13:03.911Z,2.77
2019-05-07T11:15:32.635Z,5.85
2019-05-07T11:18:07.925Z,38.98
2019-05-07T11:20:46.450Z,11.95
2019-05-07T11:23:04.172Z,9.75
2019-05-07T11:25:31.482Z,4.78
2019-05-07T11:27:58.706Z,6.10
2019-05-07T11:30:26.063Z,14.43
2019-05-07T11:32:53.414Z,15.48
2019-05-07T11:35:22.970Z,14.85
2019-05-07T11:37:51.861Z,22.62
2019-05-07T11:40:20.104Z,7.53
2019-05-07T11:43:05.714Z,13.30
2019-05-07T11:45:54.057Z,9.30
2019-05-07T11:48:22.108Z,12.35
2019-05-07T11:51:03.254Z,16.97
2019-05-07T11:53:29.420Z,13.08
2019-05-07T11:55:56.761Z,25.40
2019-05-07T11:58:24.010Z,103.10
2019-05-07T12:00:53.048Z,77.22
2019-05-07T12:03:22.094Z,54.10
2019-05-07T12:05:49.502Z,39.85
2019-05-07T12:08:16.776Z,68.15
2019-05-07T12:10:44.047Z,31.12
2019-05-07T12:13:12.787Z,113.20
2019-05-07T12:15:42.718Z,70.70
2019-05-07T12:18:11.768Z,41.48
2019-05-07T12:20:38.834Z,142.75
2019-05-07T12:23:07.188Z,70.15
2019-05-07T12:25:34.505Z,11.68
2019-05-07T12:28:02.393Z,10.50
2019-05-07T12:30:48.234Z,24.55
2019-05-07T12:33:17.259Z,5.55
2019-05-07T12:35:44.524Z,7.75
2019-05-07T12:38:12.778Z,7.92
2019-05-07T12:40:41.913Z,7.78
2019-05-07T12:43:11.048Z,7.95
2019-05-07T12:45:38.303Z,6.78
2019-05-07T12:48:05.574Z,24.92
2019-05-07T12:50:32.861Z,6.67
2019-05-07T12:53:13.727Z,8.25
2019-05-07T12:55:48.764Z,4.47
2019-05-07T12:58:15.977Z,6.75
2019-05-07T13:00:47.817Z,5.45
2019-05-07T13:03:16.857Z,10.32
2019-05-07T13:05:44.241Z,7.75
2019-05-07T13:08:12.332Z,5.75
2019-05-07T13:10:39.874Z,11.35
2019-05-07T13:13:07.109Z,15.53
2019-05-07T13:15:34.389Z,11.57
2019-05-07T13:18:02.789Z,15.53
2019-05-07T13:20:31.994Z,43.02
2019-05-07T13:22:59.325Z,20.52
2019-05-07T13:25:28.166Z,66.87
2019-05-07T13:27:57.120Z,7.93
2019-05-07T13:30:24.471Z,8.23
2019-05-07T13:32:52.578Z,10.13
2019-05-07T13:35:20.338Z,7.42
2019-05-07T13:37:52.199Z,8.70
2019-05-07T13:40:21.375Z,8.63
2019-05-07T13:42:59.648Z,13.13
2019-05-07T13:45:34.658Z,10.45
2019-05-07T13:48:07.128Z,11.00
2019-05-07T13:50:34.534Z,7.50
2019-05-07T13:53:01.832Z,10.98
2019-05-07T13:55:29.151Z,14.33
2019-05-07T13:57:56.364Z,6.95
2019-05-07T14:00:37.447Z,6.62
2019-05-07T14:05:32.344Z,6.42
2019-05-07T14:07:59.949Z,4.22
2019-05-07T14:10:28.191Z,7.95
2019-05-07T14:16:08.497Z,6.87
2019-05-07T14:18:37.883Z,5.35
2019-05-07T14:21:05.285Z,6.65
2019-05-07T14:23:33.573Z,5.05
2019-05-07T14:26:01.960Z,7.50
2019-05-07T14:28:29.436Z,7.83
2019-05-07T14:30:56.680Z,7.05
2019-05-07T14:33:25.693Z,6.92
2019-05-07T14:36:02.202Z,10.20
2019-05-07T14:38:42.496Z,8.25
2019-05-07T14:41:09.429Z,8.88
2019-05-07T14:43:44.316Z,27.67
2019-05-07T14:46:11.979Z,52.48
2019-05-07T14:48:41.954Z,33.73
2019-05-07T14:51:09.885Z,64.60
2019-05-07T14:53:37.216Z,51.58
2019-05-07T14:56:04.455Z,38.50
2019-05-07T14:58:31.970Z,19.25
2019-05-07T15:00:59.479Z,15.80
2019-05-07T15:03:26.740Z,13.43
2019-05-07T15:05:54.002Z,6.80
2019-05-07T15:08:22.079Z,8.18
2019-05-07T15:10:49.375Z,8.48
2019-05-07T15:13:16.724Z,9.75
2019-05-07T15:15:44.063Z,2.42
2019-05-07T15:18:15.948Z,12.28
2019-05-07T15:20:43.229Z,31.27
2019-05-07T15:23:12.357Z,57.70
2019-05-07T15:25:39.612Z,12.35
2019-05-07T15:28:06.867Z,17.07
2019-05-07T15:30:38.843Z,40.40
2019-05-07T15:33:06.065Z,19.12
2019-05-07T15:35:33.311Z,22.05
2019-05-07T15:38:02.281Z,36.90
2019-05-07T15:40:29.657Z,21.07
2019-05-07T15:42:56.896Z,19.12
2019-05-07T15:45:24.540Z,33.42
2019-05-07T15:47:53.578Z,21.37
2019-05-07T15:50:23.137Z,39.35
2019-05-07T15:52:58.638Z,43.15
2019-05-07T15:57:52.159Z,11.18
2019-05-07T16:00:28.303Z,10.16
2019-05-07T16:03:09.228Z,13.32
2019-05-07T16:05:36.525Z,20.72
2019-05-07T16:08:04.906Z,25.95
2019-05-07T16:10:38.043Z,27.12
2019-05-07T16:13:05.586Z,30.94
2019-05-07T16:15:32.852Z,29.63
2019-05-07T16:18:02.812Z,32.55
2019-05-07T16:20:32.430Z,15.55
2019-05-07T16:23:12.089Z,30.43
2019-05-07T16:25:32.692Z,37.78
2019-05-07T16:28:02.085Z,27.48
2019-05-07T16:30:29.096Z,23.00
2019-05-07T16:32:56.455Z,22.25
2019-05-07T16:35:23.671Z,29.72
2019-05-07T16:37:52.199Z,29.00
2019-05-07T16:40:19.593Z,26.62
2019-05-07T16:42:46.815Z,53.10
2019-05-07T16:45:14.360Z,59.38
2019-05-07T16:47:41.674Z,49.25
2019-05-07T16:50:08.894Z,61.08
2019-05-07T16:52:36.121Z,37.38
2019-05-07T16:55:06.375Z,17.70
2019-05-07T16:57:42.333Z,25.77
2019-05-07T17:00:11.527Z,26.68
2019-05-07T17:02:41.667Z,36.68
2019-05-07T17:05:12.450Z,32.20
2019-05-07T17:07:42.689Z,41.10
2019-05-07T17:10:11.677Z,96.63
2019-05-07T17:12:42.296Z,60.60
2019-05-07T17:15:09.528Z,46.98
2019-05-07T17:17:36.864Z,51.25
2019-05-07T17:20:04.681Z,40.38
2019-05-07T17:22:32.376Z,25.70
2019-05-07T17:25:03.160Z,23.62
2019-05-07T17:27:32.248Z,25.00
2019-05-07T17:30:02.929Z,37.58
2019-05-07T17:32:32.145Z,31.77
2019-05-07T17:34:59.557Z,27.77
2019-05-07T17:37:26.910Z,30.12
2019-05-07T17:39:54.228Z,34.63
2019-05-07T17:42:22.416Z,42.23
2019-05-07T17:44:51.756Z,53.50
2019-05-07T17:47:19.098Z,48.68
2019-05-07T17:49:46.792Z,48.42
2019-05-07T17:52:14.133Z,45.25
2019-05-07T17:54:42.354Z,58.28
2019-05-07T17:57:14.276Z,60.60
2019-05-07T17:59:42.151Z,63.58
2019-05-07T18:02:17.574Z,56.50
2019-05-07T18:04:50.987Z,64.10
2019-05-07T18:07:14.989Z,59.55
2019-05-07T18:09:42.546Z,73.72
2019-05-07T18:12:11.942Z,67.20
2019-05-07T18:14:39.779Z,80.03
2019-05-07T18:17:12.573Z,93.10
2019-05-07T18:19:41.091Z,127.55
2019-05-07T18:22:08.736Z,155.52
2019-05-07T18:24:36.213Z,157.15
2019-05-07T18:27:04.995Z,149.82
2019-05-07T18:29:32.586Z,137.82
2019-05-07T18:32:02.171Z,108.17
2019-05-07T18:34:29.668Z,106.17
2019-05-07T18:36:58.684Z,99.10
2019-05-07T18:39:27.478Z,121.25
2019-05-07T18:41:54.884Z,134.57
2019-05-07T18:44:22.473Z,150.25
2019-05-07T18:46:50.005Z,147.55
2019-05-07T18:49:17.704Z,139.25
2019-05-07T18:51:45.410Z,165.20
2019-05-07T18:54:26.368Z,196.63
2019-05-07T18:56:42.175Z,274.58
2019-05-07T18:59:11.151Z,338.48
2019-05-07T19:01:42.085Z,292.65
2019-05-07T19:04:09.635Z,278.75
2019-05-07T19:06:37.003Z,235.70
2019-05-07T19:09:06.019Z,215.40
2019-05-07T19:11:34.541Z,213.10
2019-05-07T19:14:04.185Z,202.95
2019-05-07T19:16:32.312Z,192.20
2019-05-07T19:19:01.128Z,193.50
2019-05-07T19:21:28.817Z,216.38
2019-05-07T19:23:56.181Z,216.23
2019-05-07T19:26:23.463Z,218.02
2019-05-07T19:28:50.714Z,183.10
2019-05-07T19:31:18.124Z,147.70
2019-05-07T19:33:45.680Z,150.07
2019-05-07T19:36:15.191Z,133.27
2019-05-07T19:38:42.692Z,130.05
2019-05-07T19:41:12.125Z,124.22
2019-05-07T19:43:39.341Z,115.60
2019-05-07T19:46:06.705Z,110.63
2019-05-07T19:48:34.062Z,125.60
2019-05-07T19:51:03.211Z,130.03
2019-05-07T19:53:36.241Z,131.55
2019-05-07T19:56:07.256Z,142.55
2019-05-07T19:58:34.932Z,151.27
2019-05-07T20:01:03.295Z,158.95
2019-05-07T20:03:31.135Z,152.25
2019-05-07T20:05:58.803Z,168.30
2019-05-07T20:08:29.384Z,159.25
2019-05-07T20:10:58.787Z,165.80
2019-05-07T20:13:27.612Z,143.95
2019-05-07T20:15:56.764Z,139.68
2019-05-07T20:18:24.703Z,138.37
2019-05-07T20:20:52.065Z,139.10
2019-05-07T20:23:19.432Z,122.70
2019-05-07T20:25:46.756Z,118.30
2019-05-07T20:28:16.480Z,126.25
2019-05-07T20:30:43.293Z,134.50
2019-05-07T20:33:12.079Z,135.50
2019-05-07T20:35:41.319Z,138.97
2019-05-07T20:38:08.512Z,146.20
2019-05-07T20:40:36.885Z,144.25
2019-05-07T20:43:04.290Z,139.60
2019-05-07T20:45:32.141Z,154.78
2019-05-07T20:47:59.584Z,154.35
2019-05-07T20:50:26.811Z,146.57
2019-05-07T20:52:54.564Z,138.88
2019-05-07T20:55:30.473Z,118.55
2019-05-07T20:57:53.621Z,95.92
2019-05-07T21:00:23.878Z,101.40
2019-05-07T21:02:53.523Z,84.40
2019-05-07T21:05:22.668Z,87.75
2019-05-07T21:07:50.079Z,103.67
2019-05-07T21:10:17.448Z,113.95
2019-05-07T21:12:44.693Z,108.75
2019-05-07T21:15:12.429Z,95.77
2019-05-07T21:17:39.797Z,97.20
2019-05-07T21:20:07.356Z,120.47
2019-05-07T21:22:34.997Z,112.40
2019-05-07T21:25:02.885Z,121.80
2019-05-07T21:27:32.101Z,119.53
2019-05-07T21:29:59.561Z,119.33
2019-05-07T21:32:27.948Z,120.85
2019-05-07T21:34:56.431Z,112.90
2019-05-07T21:37:23.784Z,129.27
2019-05-07T21:39:53.296Z,133.90
2019-05-07T21:42:22.864Z,130.90
2019-05-07T21:44:52.502Z,125.72
2019-05-07T21:47:19.539Z,128.75
2019-05-07T21:49:47.122Z,111.40
2019-05-07T21:52:14.466Z,89.72
2019-05-07T21:54:52.590Z,87.08
2019-05-07T21:57:32.847Z,86.08
2019-05-07T22:00:02.220Z,89.80
2019-05-07T22:02:30.059Z,74.87
2019-05-07T22:04:57.418Z,78.02
2019-05-07T22:07:24.755Z,71.05
2019-05-07T22:09:54.351Z,75.95
2019-05-07T22:12:22.639Z,67.37
2019-05-07T22:14:50.257Z,71.00
2019-05-07T22:17:17.566Z,76.33
2019-05-07T22:19:45.409Z,77.25
2019-05-07T22:22:12.899Z,85.07
2019-05-07T22:24:42.031Z,136.10
2019-05-07T22:27:09.226Z,132.15
2019-05-07T22:29:36.476Z,126.97
2019-05-07T22:32:08.334Z,128.38
2019-05-07T22:34:37.402Z,124.90
2019-05-07T22:37:05.055Z,114.10
2019-05-07T22:39:46.196Z,112.72
2019-05-07T22:42:15.248Z,106.17
2019-05-07T22:44:42.664Z,96.00
2019-05-07T22:47:18.975Z,85.80
2019-05-07T22:49:46.853Z,73.20
2019-05-07T22:52:14.114Z,76.30
2019-05-07T22:54:43.211Z,80.55
2019-05-07T22:57:14.156Z,75.72
2019-05-07T22:59:43.284Z,96.22
2019-05-07T23:02:12.222Z,107.70
2019-05-07T23:04:39.656Z,101.38
2019-05-07T23:07:07.276Z,85.22
2019-05-07T23:09:34.597Z,78.80
2019-05-07T23:12:02.304Z,69.37
2019-05-07T23:14:29.578Z,74.53
2019-05-07T23:16:57.078Z,68.40
2019-05-07T23:19:24.292Z,78.75
2019-05-07T23:21:52.247Z,83.67
2019-05-07T23:24:22.609Z,85.30
2019-05-07T23:26:51.170Z,99.77
2019-05-07T23:29:19.146Z,96.30
2019-05-07T23:31:46.392Z,91.12
2019-05-07T23:34:13.766Z,92.95
2019-05-07T23:36:42.185Z,97.85
2019-05-07T23:39:11.918Z,87.85
2019-05-07T23:41:42.059Z,83.03
2019-05-07T23:44:13.188Z,83.15
2019-05-07T23:46:44.441Z,79.35
2019-05-07T23:49:09.588Z,85.20
2019-05-07T23:51:36.815Z,83.75
2019-05-07T23:54:04.398Z,80.15
2019-05-07T23:56:32.903Z,80.80
2019-05-07T23:59:00.259Z,81.87
